Accueil
METAR-TAF:

METAR-TAF

Aéroports :

Barksdale Air Force Base

Bossier City, Louisiane, États-Unis

latitude: 32-30N, longitude: 093-40W, altitude: 51 m

Observation

Le bulletin a été fait il y a 32 minutes, à 19:55 UTC
Vent 3 kt de est
Température 30°C
Humidité 25%
Pression 1015 hPa
Visibilité: 16.1 km
Ciel clair

METAR: KBAD 281955Z AUTO 10003KT 10SM CLR 30/08 A2998 RMK AO2 SLP155 T02990083 $

Heure: 15:27 (20:27 UTC)


TAF: absent

Observations et prévisions météorologiques de plus de 4000 aéroports (messages METAR et TAF).

Les stations disponibles sont représentées par des disques jaunes et rouges sur la carte.

Passer la souris dessus pour voir le nom de la station.

Cliquer dessus pour voir les observations et prévisions météorologiques.

Pour changer de carte: cliquez sur les boutons verts avec une croix noire pour zoomer, sur le bouton vert avec un tiret pour effectuer un zoom arrière, ou sur les flèches vertes pour les cartes adjacentes.


METAR-TAF: